sensor_id;sensor_type;location;lat;lon;timestamp;P1;durP1;ratioP1;P2;durP2;ratioP2
11141;SDS011;5625;50.122;19.864;2023-02-01T00:01:28;10.97;;;7.40;;
11141;SDS011;5625;50.122;19.864;2023-02-01T00:03:56;8.50;;;7.23;;
11141;SDS011;5625;50.122;19.864;2023-02-01T00:06:24;10.53;;;7.83;;
11141;SDS011;5625;50.122;19.864;2023-02-01T00:08:54;9.30;;;7.50;;
11141;SDS011;5625;50.122;19.864;2023-02-01T00:11:23;9.67;;;7.47;;
11141;SDS011;5625;50.122;19.864;2023-02-01T00:13:51;10.97;;;7.80;;
11141;SDS011;5625;50.122;19.864;2023-02-01T00:16:20;9.17;;;7.63;;
11141;SDS011;5625;50.122;19.864;2023-02-01T00:18:51;9.77;;;7.80;;
11141;SDS011;5625;50.122;19.864;2023-02-01T00:21:23;10.03;;;7.67;;
11141;SDS011;5625;50.122;19.864;2023-02-01T00:23:53;9.07;;;7.87;;
11141;SDS011;5625;50.122;19.864;2023-02-01T00:26:22;12.27;;;8.30;;
11141;SDS011;5625;50.122;19.864;2023-02-01T00:28:55;11.33;;;7.90;;
11141;SDS011;5625;50.122;19.864;2023-02-01T00:31:23;10.20;;;8.17;;
11141;SDS011;5625;50.122;19.864;2023-02-01T00:33:56;11.50;;;7.80;;
11141;SDS011;5625;50.122;19.864;2023-02-01T00:36:24;10.37;;;7.60;;
11141;SDS011;5625;50.122;19.864;2023-02-01T00:38:52;8.60;;;7.47;;
11141;SDS011;5625;50.122;19.864;2023-02-01T00:41:20;9.93;;;7.60;;
11141;SDS011;5625;50.122;19.864;2023-02-01T00:43:49;8.67;;;7.33;;
11141;SDS011;5625;50.122;19.864;2023-02-01T00:46:18;9.60;;;7.17;;
11141;SDS011;5625;50.122;19.864;2023-02-01T00:48:47;7.93;;;7.13;;
11141;SDS011;5625;50.122;19.864;2023-02-01T00:51:18;10.30;;;7.53;;
11141;SDS011;5625;50.122;19.864;2023-02-01T00:53:47;8.30;;;7.50;;
11141;SDS011;5625;50.122;19.864;2023-02-01T00:56:16;10.10;;;7.33;;
11141;SDS011;5625;50.122;19.864;2023-02-01T00:58:44;10.13;;;6.60;;
11141;SDS011;5625;50.122;19.864;2023-02-01T01:01:13;7.70;;;6.87;;
11141;SDS011;5625;50.122;19.864;2023-02-01T01:03:42;8.27;;;6.93;;
11141;SDS011;5625;50.122;19.864;2023-02-01T01:06:12;10.27;;;7.77;;
11141;SDS011;5625;50.122;19.864;2023-02-01T01:08:43;11.03;;;7.43;;
11141;SDS011;5625;50.122;19.864;2023-02-01T01:11:12;9.80;;;7.10;;
11141;SDS011;5625;50.122;19.864;2023-02-01T01:13:43;9.70;;;7.27;;
11141;SDS011;5625;50.122;19.864;2023-02-01T01:16:13;7.77;;;6.77;;
11141;SDS011;5625;50.122;19.864;2023-02-01T01:18:42;10.40;;;6.97;;
11141;SDS011;5625;50.122;19.864;2023-02-01T01:21:11;12.70;;;7.70;;
11141;SDS011;5625;50.122;19.864;2023-02-01T01:23:43;10.10;;;7.30;;
11141;SDS011;5625;50.122;19.864;2023-02-01T01:26:15;9.57;;;7.43;;
11141;SDS011;5625;50.122;19.864;2023-02-01T01:28:45;9.03;;;7.67;;
11141;SDS011;5625;50.122;19.864;2023-02-01T01:31:14;10.33;;;7.17;;
11141;SDS011;5625;50.122;19.864;2023-02-01T01:33:46;7.77;;;6.70;;
11141;SDS011;5625;50.122;19.864;2023-02-01T01:36:15;9.97;;;7.77;;
11141;SDS011;5625;50.122;19.864;2023-02-01T01:38:45;9.47;;;7.33;;
11141;SDS011;5625;50.122;19.864;2023-02-01T01:41:14;7.20;;;6.13;;
11141;SDS011;5625;50.122;19.864;2023-02-01T01:46:30;4.53;;;4.13;;
11141;SDS011;5625;50.122;19.864;2023-02-01T01:49:03;4.10;;;3.67;;
11141;SDS011;5625;50.122;19.864;2023-02-01T01:51:35;5.23;;;3.50;;
11141;SDS011;5625;50.122;19.864;2023-02-01T01:54:10;4.27;;;3.40;;
11141;SDS011;5625;50.122;19.864;2023-02-01T01:56:43;5.37;;;4.40;;
11141;SDS011;5625;50.122;19.864;2023-02-01T01:59:16;5.47;;;4.97;;
11141;SDS011;5625;50.122;19.864;2023-02-01T02:01:45;8.27;;;6.07;;
11141;SDS011;5625;50.122;19.864;2023-02-01T02:04:14;9.50;;;7.40;;
11141;SDS011;5625;50.122;19.864;2023-02-01T02:06:44;8.83;;;7.50;;
11141;SDS011;5625;50.122;19.864;2023-02-01T02:09:18;10.87;;;8.40;;
11141;SDS011;5625;50.122;19.864;2023-02-01T02:11:46;10.00;;;8.10;;
11141;SDS011;5625;50.122;19.864;2023-02-01T02:14:15;9.07;;;7.63;;
11141;SDS011;5625;50.122;19.864;2023-02-01T02:16:57;9.00;;;7.93;;
11141;SDS011;5625;50.122;19.864;2023-02-01T02:19:49;9.20;;;6.77;;
11141;SDS011;5625;50.122;19.864;2023-02-01T02:22:46;6.97;;;6.20;;
11141;SDS011;5625;50.122;19.864;2023-02-01T02:25:30;9.20;;;5.87;;
11141;SDS011;5625;50.122;19.864;2023-02-01T02:28:32;7.20;;;4.57;;
11141;SDS011;5625;50.122;19.864;2023-02-01T02:31:32;7.87;;;4.37;;
11141;SDS011;5625;50.122;19.864;2023-02-01T02:34:17;7.53;;;3.60;;
11141;SDS011;5625;50.122;19.864;2023-02-01T02:36:55;6.67;;;3.87;;
11141;SDS011;5625;50.122;19.864;2023-02-01T02:39:34;6.83;;;3.63;;
11141;SDS011;5625;50.122;19.864;2023-02-01T02:42:10;7.23;;;3.63;;
11141;SDS011;5625;50.122;19.864;2023-02-01T02:45:00;7.13;;;3.23;;
11141;SDS011;5625;50.122;19.864;2023-02-01T02:47:52;6.77;;;3.13;;
11141;SDS011;5625;50.122;19.864;2023-02-01T02:50:32;10.13;;;3.60;;
11141;SDS011;5625;50.122;19.864;2023-02-01T02:53:23;10.33;;;2.80;;
11141;SDS011;5625;50.122;19.864;2023-02-01T02:56:13;10.93;;;2.73;;
11141;SDS011;5625;50.122;19.864;2023-02-01T02:59:03;7.87;;;2.60;;
11141;SDS011;5625;50.122;19.864;2023-02-01T03:01:51;8.30;;;2.93;;
11141;SDS011;5625;50.122;19.864;2023-02-01T03:04:37;12.97;;;3.30;;
11141;SDS011;5625;50.122;19.864;2023-02-01T03:10:10;8.40;;;2.73;;
11141;SDS011;5625;50.122;19.864;2023-02-01T03:12:48;8.97;;;2.63;;
11141;SDS011;5625;50.122;19.864;2023-02-01T03:15:22;6.10;;;2.60;;
11141;SDS011;5625;50.122;19.864;2023-02-01T03:17:55;8.67;;;2.40;;
11141;SDS011;5625;50.122;19.864;2023-02-01T03:20:28;7.63;;;2.30;;
11141;SDS011;5625;50.122;19.864;2023-02-01T03:22:58;7.43;;;2.53;;
11141;SDS011;5625;50.122;19.864;2023-02-01T03:25:28;5.23;;;2.13;;
11141;SDS011;5625;50.122;19.864;2023-02-01T03:28:00;8.63;;;2.40;;
11141;SDS011;5625;50.122;19.864;2023-02-01T03:30:32;6.03;;;2.00;;
11141;SDS011;5625;50.122;19.864;2023-02-01T03:33:06;7.73;;;1.90;;
11141;SDS011;5625;50.122;19.864;2023-02-01T03:35:42;7.00;;;2.37;;
11141;SDS011;5625;50.122;19.864;2023-02-01T03:38:22;7.10;;;2.50;;
11141;SDS011;5625;50.122;19.864;2023-02-01T03:40:55;5.43;;;2.13;;
11141;SDS011;5625;50.122;19.864;2023-02-01T03:43:29;4.30;;;2.37;;
11141;SDS011;5625;50.122;19.864;2023-02-01T03:46:03;7.60;;;2.40;;
11141;SDS011;5625;50.122;19.864;2023-02-01T03:48:37;5.67;;;2.27;;
11141;SDS011;5625;50.122;19.864;2023-02-01T03:51:06;8.17;;;2.60;;
11141;SDS011;5625;50.122;19.864;2023-02-01T03:53:35;9.20;;;3.37;;
11141;SDS011;5625;50.122;19.864;2023-02-01T03:56:07;7.10;;;2.73;;
11141;SDS011;5625;50.122;19.864;2023-02-01T03:58:37;11.00;;;3.80;;
11141;SDS011;5625;50.122;19.864;2023-02-01T04:01:07;8.80;;;3.67;;
11141;SDS011;5625;50.122;19.864;2023-02-01T04:03:35;11.17;;;4.60;;
11141;SDS011;5625;50.122;19.864;2023-02-01T04:06:03;8.77;;;3.83;;
11141;SDS011;5625;50.122;19.864;2023-02-01T04:08:31;6.20;;;3.30;;
11141;SDS011;5625;50.122;19.864;2023-02-01T04:10:59;6.83;;;3.10;;
11141;SDS011;5625;50.122;19.864;2023-02-01T04:13:28;7.57;;;3.30;;
11141;SDS011;5625;50.122;19.864;2023-02-01T04:15:57;6.97;;;3.10;;
11141;SDS011;5625;50.122;19.864;2023-02-01T04:18:25;7.33;;;2.70;;
11141;SDS011;5625;50.122;19.864;2023-02-01T04:20:53;5.67;;;2.70;;
11141;SDS011;5625;50.122;19.864;2023-02-01T04:23:21;4.97;;;2.53;;
11141;SDS011;5625;50.122;19.864;2023-02-01T04:25:49;4.87;;;2.80;;
11141;SDS011;5625;50.122;19.864;2023-02-01T04:28:17;5.37;;;2.60;;
11141;SDS011;5625;50.122;19.864;2023-02-01T04:30:46;6.40;;;2.60;;
11141;SDS011;5625;50.122;19.864;2023-02-01T04:33:14;5.60;;;2.90;;
11141;SDS011;5625;50.122;19.864;2023-02-01T04:35:42;6.37;;;2.90;;
11141;SDS011;5625;50.122;19.864;2023-02-01T04:38:10;7.50;;;2.80;;
11141;SDS011;5625;50.122;19.864;2023-02-01T04:40:38;6.20;;;3.00;;
11141;SDS011;5625;50.122;19.864;2023-02-01T04:43:06;5.63;;;2.90;;
11141;SDS011;5625;50.122;19.864;2023-02-01T04:45:34;7.93;;;3.37;;
11141;SDS011;5625;50.122;19.864;2023-02-01T04:48:04;5.43;;;3.10;;
11141;SDS011;5625;50.122;19.864;2023-02-01T04:50:32;4.00;;;3.07;;
11141;SDS011;5625;50.122;19.864;2023-02-01T04:53:00;6.73;;;2.97;;
11141;SDS011;5625;50.122;19.864;2023-02-01T04:55:29;6.47;;;3.10;;
11141;SDS011;5625;50.122;19.864;2023-02-01T04:57:57;5.80;;;3.13;;
11141;SDS011;5625;50.122;19.864;2023-02-01T05:00:25;4.67;;;3.17;;
11141;SDS011;5625;50.122;19.864;2023-02-01T05:02:53;6.87;;;3.40;;
11141;SDS011;5625;50.122;19.864;2023-02-01T05:05:22;5.27;;;3.10;;
11141;SDS011;5625;50.122;19.864;2023-02-01T05:07:50;5.13;;;3.70;;
11141;SDS011;5625;50.122;19.864;2023-02-01T05:10:18;5.77;;;3.20;;
11141;SDS011;5625;50.122;19.864;2023-02-01T05:12:46;7.00;;;3.50;;
11141;SDS011;5625;50.122;19.864;2023-02-01T05:15:32;6.47;;;3.33;;
11141;SDS011;5625;50.122;19.864;2023-02-01T05:18:00;8.37;;;3.10;;
11141;SDS011;5625;50.122;19.864;2023-02-01T05:20:29;5.43;;;2.90;;
11141;SDS011;5625;50.122;19.864;2023-02-01T05:22:57;6.93;;;3.10;;
11141;SDS011;5625;50.122;19.864;2023-02-01T05:25:25;5.67;;;3.20;;
11141;SDS011;5625;50.122;19.864;2023-02-01T05:27:53;5.77;;;3.20;;
11141;SDS011;5625;50.122;19.864;2023-02-01T05:30:21;5.77;;;3.53;;
11141;SDS011;5625;50.122;19.864;2023-02-01T05:32:50;4.57;;;4.13;;
11141;SDS011;5625;50.122;19.864;2023-02-01T05:35:18;7.47;;;4.13;;
11141;SDS011;5625;50.122;19.864;2023-02-01T05:37:48;6.97;;;4.23;;
11141;SDS011;5625;50.122;19.864;2023-02-01T05:40:18;6.20;;;4.47;;
11141;SDS011;5625;50.122;19.864;2023-02-01T05:42:47;6.23;;;5.00;;
11141;SDS011;5625;50.122;19.864;2023-02-01T05:45:15;6.93;;;4.67;;
11141;SDS011;5625;50.122;19.864;2023-02-01T05:47:45;7.27;;;4.97;;
11141;SDS011;5625;50.122;19.864;2023-02-01T05:50:14;6.50;;;5.43;;
11141;SDS011;5625;50.122;19.864;2023-02-01T05:52:42;5.80;;;4.93;;
11141;SDS011;5625;50.122;19.864;2023-02-01T05:55:12;5.90;;;4.80;;
11141;SDS011;5625;50.122;19.864;2023-02-01T05:57:40;5.17;;;4.33;;
11141;SDS011;5625;50.122;19.864;2023-02-01T06:00:08;5.50;;;4.50;;
11141;SDS011;5625;50.122;19.864;2023-02-01T06:02:37;6.90;;;4.10;;
11141;SDS011;5625;50.122;19.864;2023-02-01T06:05:05;7.47;;;4.00;;
11141;SDS011;5625;50.122;19.864;2023-02-01T06:07:34;7.20;;;4.37;;
11141;SDS011;5625;50.122;19.864;2023-02-01T06:10:02;7.53;;;4.20;;
11141;SDS011;5625;50.122;19.864;2023-02-01T06:12:32;6.10;;;4.23;;
11141;SDS011;5625;50.122;19.864;2023-02-01T06:15:00;6.77;;;4.30;;
11141;SDS011;5625;50.122;19.864;2023-02-01T06:17:28;8.23;;;4.57;;
11141;SDS011;5625;50.122;19.864;2023-02-01T06:19:56;7.07;;;4.40;;
11141;SDS011;5625;50.122;19.864;2023-02-01T06:22:24;9.60;;;4.97;;
11141;SDS011;5625;50.122;19.864;2023-02-01T06:24:52;9.23;;;5.10;;
11141;SDS011;5625;50.122;19.864;2023-02-01T06:27:20;7.33;;;4.60;;
11141;SDS011;5625;50.122;19.864;2023-02-01T06:29:50;6.47;;;4.63;;
11141;SDS011;5625;50.122;19.864;2023-02-01T06:32:19;7.90;;;4.33;;
11141;SDS011;5625;50.122;19.864;2023-02-01T06:34:47;8.77;;;4.63;;
11141;SDS011;5625;50.122;19.864;2023-02-01T06:37:15;8.07;;;4.70;;
11141;SDS011;5625;50.122;19.864;2023-02-01T06:39:43;8.50;;;5.07;;
11141;SDS011;5625;50.122;19.864;2023-02-01T06:42:13;9.50;;;4.90;;
11141;SDS011;5625;50.122;19.864;2023-02-01T06:44:41;11.27;;;5.30;;
11141;SDS011;5625;50.122;19.864;2023-02-01T06:47:11;8.67;;;5.40;;
11141;SDS011;5625;50.122;19.864;2023-02-01T06:49:39;8.33;;;5.37;;
11141;SDS011;5625;50.122;19.864;2023-02-01T06:52:07;9.97;;;5.10;;
11141;SDS011;5625;50.122;19.864;2023-02-01T06:54:35;8.80;;;5.30;;
11141;SDS011;5625;50.122;19.864;2023-02-01T06:57:03;8.53;;;5.07;;
11141;SDS011;5625;50.122;19.864;2023-02-01T06:59:31;7.80;;;5.10;;
11141;SDS011;5625;50.122;19.864;2023-02-01T07:01:59;10.97;;;5.87;;
11141;SDS011;5625;50.122;19.864;2023-02-01T07:04:29;7.70;;;5.80;;
11141;SDS011;5625;50.122;19.864;2023-02-01T07:06:57;9.30;;;6.30;;
11141;SDS011;5625;50.122;19.864;2023-02-01T07:09:25;9.83;;;5.83;;
11141;SDS011;5625;50.122;19.864;2023-02-01T07:11:53;10.47;;;6.03;;
11141;SDS011;5625;50.122;19.864;2023-02-01T07:14:21;12.10;;;6.07;;
11141;SDS011;5625;50.122;19.864;2023-02-01T07:16:49;11.47;;;5.73;;
11141;SDS011;5625;50.122;19.864;2023-02-01T07:19:17;13.40;;;6.03;;
11141;SDS011;5625;50.122;19.864;2023-02-01T07:21:47;8.00;;;4.57;;
11141;SDS011;5625;50.122;19.864;2023-02-01T07:24:15;10.80;;;5.40;;
11141;SDS011;5625;50.122;19.864;2023-02-01T07:26:43;8.07;;;4.90;;
11141;SDS011;5625;50.122;19.864;2023-02-01T07:29:14;8.70;;;5.00;;
11141;SDS011;5625;50.122;19.864;2023-02-01T07:31:42;9.87;;;4.63;;
11141;SDS011;5625;50.122;19.864;2023-02-01T07:34:12;7.87;;;4.40;;
11141;SDS011;5625;50.122;19.864;2023-02-01T07:36:40;9.37;;;4.60;;
11141;SDS011;5625;50.122;19.864;2023-02-01T07:39:10;9.20;;;4.50;;
11141;SDS011;5625;50.122;19.864;2023-02-01T07:41:38;12.83;;;4.47;;
11141;SDS011;5625;50.122;19.864;2023-02-01T07:44:07;10.33;;;4.30;;
11141;SDS011;5625;50.122;19.864;2023-02-01T07:46:35;7.43;;;3.90;;
11141;SDS011;5625;50.122;19.864;2023-02-01T07:49:07;7.50;;;3.53;;
11141;SDS011;5625;50.122;19.864;2023-02-01T07:51:35;8.03;;;4.03;;
11141;SDS011;5625;50.122;19.864;2023-02-01T07:54:03;7.60;;;4.60;;
11141;SDS011;5625;50.122;19.864;2023-02-01T07:56:33;8.57;;;4.13;;
11141;SDS011;5625;50.122;19.864;2023-02-01T07:59:01;10.37;;;4.47;;
11141;SDS011;5625;50.122;19.864;2023-02-01T08:01:29;8.63;;;3.93;;
11141;SDS011;5625;50.122;19.864;2023-02-01T08:03:58;8.47;;;3.90;;
11141;SDS011;5625;50.122;19.864;2023-02-01T08:06:28;8.40;;;3.83;;
11141;SDS011;5625;50.122;19.864;2023-02-01T08:08:58;8.47;;;3.90;;
11141;SDS011;5625;50.122;19.864;2023-02-01T08:11:26;6.77;;;4.20;;
11141;SDS011;5625;50.122;19.864;2023-02-01T08:13:56;8.20;;;3.97;;
11141;SDS011;5625;50.122;19.864;2023-02-01T08:16:24;5.90;;;3.70;;
11141;SDS011;5625;50.122;19.864;2023-02-01T08:18:56;7.23;;;3.90;;
11141;SDS011;5625;50.122;19.864;2023-02-01T08:21:24;7.43;;;4.33;;
11141;SDS011;5625;50.122;19.864;2023-02-01T08:24:03;8.67;;;4.00;;
11141;SDS011;5625;50.122;19.864;2023-02-01T08:26:33;7.67;;;4.67;;
11141;SDS011;5625;50.122;19.864;2023-02-01T08:29:03;9.07;;;4.93;;
11141;SDS011;5625;50.122;19.864;2023-02-01T08:31:34;10.30;;;5.43;;
11141;SDS011;5625;50.122;19.864;2023-02-01T08:34:02;9.83;;;5.10;;
11141;SDS011;5625;50.122;19.864;2023-02-01T08:36:31;11.27;;;6.57;;
11141;SDS011;5625;50.122;19.864;2023-02-01T08:38:59;9.90;;;4.73;;
11141;SDS011;5625;50.122;19.864;2023-02-01T08:41:28;8.40;;;5.20;;
11141;SDS011;5625;50.122;19.864;2023-02-01T08:43:57;9.53;;;4.40;;
11141;SDS011;5625;50.122;19.864;2023-02-01T08:46:29;7.67;;;4.63;;
11141;SDS011;5625;50.122;19.864;2023-02-01T08:48:58;7.87;;;5.07;;
11141;SDS011;5625;50.122;19.864;2023-02-01T08:51:26;7.20;;;5.03;;
11141;SDS011;5625;50.122;19.864;2023-02-01T08:53:54;10.30;;;5.00;;
11141;SDS011;5625;50.122;19.864;2023-02-01T08:56:22;9.23;;;4.80;;
11141;SDS011;5625;50.122;19.864;2023-02-01T08:58:53;10.07;;;5.73;;
11141;SDS011;5625;50.122;19.864;2023-02-01T09:01:21;9.27;;;5.23;;
11141;SDS011;5625;50.122;19.864;2023-02-01T09:03:50;7.60;;;5.10;;
11141;SDS011;5625;50.122;19.864;2023-02-01T09:06:18;10.37;;;5.23;;
11141;SDS011;5625;50.122;19.864;2023-02-01T09:08:49;8.93;;;5.13;;
11141;SDS011;5625;50.122;19.864;2023-02-01T09:11:17;7.37;;;4.33;;
11141;SDS011;5625;50.122;19.864;2023-02-01T09:13:49;7.97;;;4.50;;
11141;SDS011;5625;50.122;19.864;2023-02-01T09:16:17;8.37;;;4.93;;
11141;SDS011;5625;50.122;19.864;2023-02-01T09:18:48;8.17;;;4.33;;
11141;SDS011;5625;50.122;19.864;2023-02-01T09:21:34;12.57;;;4.63;;
11141;SDS011;5625;50.122;19.864;2023-02-01T09:24:03;7.50;;;5.23;;
11141;SDS011;5625;50.122;19.864;2023-02-01T09:26:34;10.10;;;5.23;;
11141;SDS011;5625;50.122;19.864;2023-02-01T09:29:03;9.47;;;4.67;;
11141;SDS011;5625;50.122;19.864;2023-02-01T09:31:37;9.53;;;5.00;;
11141;SDS011;5625;50.122;19.864;2023-02-01T09:34:09;9.23;;;4.33;;
11141;SDS011;5625;50.122;19.864;2023-02-01T09:36:38;6.00;;;4.20;;
11141;SDS011;5625;50.122;19.864;2023-02-01T09:39:06;6.97;;;4.30;;
11141;SDS011;5625;50.122;19.864;2023-02-01T09:41:41;9.07;;;4.03;;
11141;SDS011;5625;50.122;19.864;2023-02-01T09:44:22;8.73;;;4.10;;
11141;SDS011;5625;50.122;19.864;2023-02-01T09:47:10;8.27;;;4.60;;
11141;SDS011;5625;50.122;19.864;2023-02-01T09:49:42;7.37;;;4.60;;
11141;SDS011;5625;50.122;19.864;2023-02-01T09:52:18;8.70;;;4.50;;
11141;SDS011;5625;50.122;19.864;2023-02-01T09:54:54;7.03;;;4.40;;
11141;SDS011;5625;50.122;19.864;2023-02-01T09:57:28;12.93;;;4.90;;
11141;SDS011;5625;50.122;19.864;2023-02-01T10:00:09;7.43;;;4.40;;
11141;SDS011;5625;50.122;19.864;2023-02-01T10:02:47;8.17;;;4.53;;
11141;SDS011;5625;50.122;19.864;2023-02-01T10:05:16;12.03;;;4.37;;
11141;SDS011;5625;50.122;19.864;2023-02-01T10:07:54;10.17;;;4.73;;
11141;SDS011;5625;50.122;19.864;2023-02-01T10:10:28;9.03;;;4.00;;
11141;SDS011;5625;50.122;19.864;2023-02-01T10:13:09;6.90;;;3.90;;
11141;SDS011;5625;50.122;19.864;2023-02-01T10:15:52;8.40;;;3.83;;
11141;SDS011;5625;50.122;19.864;2023-02-01T10:18:37;8.20;;;3.77;;
11141;SDS011;5625;50.122;19.864;2023-02-01T10:21:18;6.20;;;3.10;;
11141;SDS011;5625;50.122;19.864;2023-02-01T10:24:02;6.20;;;3.37;;
11141;SDS011;5625;50.122;19.864;2023-02-01T10:26:45;7.40;;;3.53;;
11141;SDS011;5625;50.122;19.864;2023-02-01T10:29:18;6.60;;;3.53;;
11141;SDS011;5625;50.122;19.864;2023-02-01T10:31:47;5.10;;;3.40;;
11141;SDS011;5625;50.122;19.864;2023-02-01T10:34:18;6.80;;;3.50;;
11141;SDS011;5625;50.122;19.864;2023-02-01T10:36:53;4.70;;;3.30;;
11141;SDS011;5625;50.122;19.864;2023-02-01T10:39:24;7.23;;;3.70;;
11141;SDS011;5625;50.122;19.864;2023-02-01T10:41:52;6.40;;;3.80;;
11141;SDS011;5625;50.122;19.864;2023-02-01T10:44:23;7.00;;;3.60;;
11141;SDS011;5625;50.122;19.864;2023-02-01T10:46:54;6.30;;;3.77;;
11141;SDS011;5625;50.122;19.864;2023-02-01T10:49:24;6.33;;;3.37;;
11141;SDS011;5625;50.122;19.864;2023-02-01T10:51:57;7.53;;;3.90;;
11141;SDS011;5625;50.122;19.864;2023-02-01T10:54:34;5.97;;;3.93;;
11141;SDS011;5625;50.122;19.864;2023-02-01T10:57:06;6.93;;;3.80;;
11141;SDS011;5625;50.122;19.864;2023-02-01T10:59:34;5.67;;;3.73;;
11141;SDS011;5625;50.122;19.864;2023-02-01T11:02:13;6.83;;;3.93;;
11141;SDS011;5625;50.122;19.864;2023-02-01T11:04:47;7.77;;;4.17;;
11141;SDS011;5625;50.122;19.864;2023-02-01T11:07:16;7.30;;;3.97;;
11141;SDS011;5625;50.122;19.864;2023-02-01T11:09:52;5.47;;;3.57;;
11141;SDS011;5625;50.122;19.864;2023-02-01T11:12:24;7.67;;;3.80;;
11141;SDS011;5625;50.122;19.864;2023-02-01T11:14:59;8.80;;;4.23;;
11141;SDS011;5625;50.122;19.864;2023-02-01T11:17:40;6.63;;;3.90;;
11141;SDS011;5625;50.122;19.864;2023-02-01T11:20:13;5.83;;;4.03;;
11141;SDS011;5625;50.122;19.864;2023-02-01T11:22:47;8.90;;;4.03;;
11141;SDS011;5625;50.122;19.864;2023-02-01T11:25:21;7.03;;;4.37;;
11141;SDS011;5625;50.122;19.864;2023-02-01T11:27:53;10.83;;;4.77;;
11141;SDS011;5625;50.122;19.864;2023-02-01T11:30:27;8.77;;;4.40;;
11141;SDS011;5625;50.122;19.864;2023-02-01T11:33:00;9.07;;;5.10;;
11141;SDS011;5625;50.122;19.864;2023-02-01T11:35:32;8.33;;;4.47;;
11141;SDS011;5625;50.122;19.864;2023-02-01T11:38:10;7.00;;;4.33;;
11141;SDS011;5625;50.122;19.864;2023-02-01T11:40:42;7.97;;;4.27;;
11141;SDS011;5625;50.122;19.864;2023-02-01T11:43:13;8.50;;;4.53;;
11141;SDS011;5625;50.122;19.864;2023-02-01T11:45:53;7.53;;;3.83;;
11141;SDS011;5625;50.122;19.864;2023-02-01T11:48:23;7.93;;;4.10;;
11141;SDS011;5625;50.122;19.864;2023-02-01T11:50:57;6.30;;;4.50;;
11141;SDS011;5625;50.122;19.864;2023-02-01T11:53:42;9.63;;;4.60;;
11141;SDS011;5625;50.122;19.864;2023-02-01T11:56:37;6.57;;;4.00;;
11141;SDS011;5625;50.122;19.864;2023-02-01T11:59:17;5.80;;;3.83;;
11141;SDS011;5625;50.122;19.864;2023-02-01T12:02:11;6.67;;;4.37;;
11141;SDS011;5625;50.122;19.864;2023-02-01T12:04:56;6.43;;;4.67;;
11141;SDS011;5625;50.122;19.864;2023-02-01T12:07:48;6.37;;;4.50;;
11141;SDS011;5625;50.122;19.864;2023-02-01T12:10:39;7.67;;;4.60;;
11141;SDS011;5625;50.122;19.864;2023-02-01T12:13:23;9.03;;;4.63;;
11141;SDS011;5625;50.122;19.864;2023-02-01T12:16:09;9.33;;;5.53;;
11141;SDS011;5625;50.122;19.864;2023-02-01T12:18:55;7.10;;;4.80;;
11141;SDS011;5625;50.122;19.864;2023-02-01T12:21:44;8.97;;;5.33;;
11141;SDS011;5625;50.122;19.864;2023-02-01T12:24:26;9.90;;;5.50;;
11141;SDS011;5625;50.122;19.864;2023-02-01T12:30:23;9.90;;;5.70;;
11141;SDS011;5625;50.122;19.864;2023-02-01T12:33:09;10.13;;;5.73;;
11141;SDS011;5625;50.122;19.864;2023-02-01T12:35:49;9.47;;;5.33;;
11141;SDS011;5625;50.122;19.864;2023-02-01T12:38:31;8.73;;;5.90;;
11141;SDS011;5625;50.122;19.864;2023-02-01T12:44:11;9.20;;;5.53;;
11141;SDS011;5625;50.122;19.864;2023-02-01T12:46:46;7.83;;;5.70;;
11141;SDS011;5625;50.122;19.864;2023-02-01T12:49:20;8.30;;;5.07;;
11141;SDS011;5625;50.122;19.864;2023-02-01T12:51:55;8.37;;;5.37;;
11141;SDS011;5625;50.122;19.864;2023-02-01T12:54:31;9.80;;;5.40;;
11141;SDS011;5625;50.122;19.864;2023-02-01T12:57:06;7.93;;;4.83;;
11141;SDS011;5625;50.122;19.864;2023-02-01T12:59:42;6.20;;;4.87;;
11141;SDS011;5625;50.122;19.864;2023-02-01T13:02:16;7.77;;;5.00;;
11141;SDS011;5625;50.122;19.864;2023-02-01T13:04:52;7.87;;;4.87;;
11141;SDS011;5625;50.122;19.864;2023-02-01T13:07:28;9.93;;;5.60;;
11141;SDS011;5625;50.122;19.864;2023-02-01T13:10:03;6.67;;;5.30;;
11141;SDS011;5625;50.122;19.864;2023-02-01T13:12:40;8.53;;;5.17;;
11141;SDS011;5625;50.122;19.864;2023-02-01T13:15:16;7.63;;;5.20;;
11141;SDS011;5625;50.122;19.864;2023-02-01T13:17:50;11.47;;;5.83;;
11141;SDS011;5625;50.122;19.864;2023-02-01T13:20:21;8.30;;;5.37;;
11141;SDS011;5625;50.122;19.864;2023-02-01T13:22:57;9.97;;;5.17;;
11141;SDS011;5625;50.122;19.864;2023-02-01T13:25:33;9.20;;;5.40;;
11141;SDS011;5625;50.122;19.864;2023-02-01T13:28:06;9.00;;;5.60;;
11141;SDS011;5625;50.122;19.864;2023-02-01T13:30:48;9.63;;;5.80;;
11141;SDS011;5625;50.122;19.864;2023-02-01T13:33:38;8.83;;;6.23;;
11141;SDS011;5625;50.122;19.864;2023-02-01T13:36:34;9.27;;;5.77;;
11141;SDS011;5625;50.122;19.864;2023-02-01T13:42:22;8.67;;;5.80;;
11141;SDS011;5625;50.122;19.864;2023-02-01T13:44:57;10.13;;;6.20;;
11141;SDS011;5625;50.122;19.864;2023-02-01T13:47:29;7.90;;;6.03;;
11141;SDS011;5625;50.122;19.864;2023-02-01T13:50:02;14.27;;;10.53;;
11141;SDS011;5625;50.122;19.864;2023-02-01T13:52:39;14.60;;;11.17;;
11141;SDS011;5625;50.122;19.864;2023-02-01T13:55:15;12.33;;;8.63;;
11141;SDS011;5625;50.122;19.864;2023-02-01T13:57:52;11.67;;;8.23;;
11141;SDS011;5625;50.122;19.864;2023-02-01T14:00:29;10.20;;;7.63;;
11141;SDS011;5625;50.122;19.864;2023-02-01T14:03:09;14.63;;;8.97;;
11141;SDS011;5625;50.122;19.864;2023-02-01T14:05:57;9.47;;;7.27;;
11141;SDS011;5625;50.122;19.864;2023-02-01T14:08:40;11.00;;;8.13;;
11141;SDS011;5625;50.122;19.864;2023-02-01T14:23:27;9.53;;;7.63;;
11141;SDS011;5625;50.122;19.864;2023-02-01T14:26:02;10.27;;;7.57;;
11141;SDS011;5625;50.122;19.864;2023-02-01T14:28:57;11.00;;;7.43;;
11141;SDS011;5625;50.122;19.864;2023-02-01T14:31:33;10.63;;;7.20;;
11141;SDS011;5625;50.122;19.864;2023-02-01T14:34:10;10.87;;;6.43;;
11141;SDS011;5625;50.122;19.864;2023-02-01T14:36:45;8.50;;;6.27;;
11141;SDS011;5625;50.122;19.864;2023-02-01T14:39:30;12.60;;;5.93;;
11141;SDS011;5625;50.122;19.864;2023-02-01T14:42:05;8.77;;;5.43;;
11141;SDS011;5625;50.122;19.864;2023-02-01T14:44:45;10.17;;;5.90;;
11141;SDS011;5625;50.122;19.864;2023-02-01T14:47:26;7.53;;;4.87;;
11141;SDS011;5625;50.122;19.864;2023-02-01T14:50:10;8.47;;;5.20;;
11141;SDS011;5625;50.122;19.864;2023-02-01T14:53:15;5.27;;;4.63;;
11141;SDS011;5625;50.122;19.864;2023-02-01T14:55:50;6.57;;;4.80;;
11141;SDS011;5625;50.122;19.864;2023-02-01T14:58:26;7.50;;;5.30;;
11141;SDS011;5625;50.122;19.864;2023-02-01T15:01:01;6.77;;;4.90;;
11141;SDS011;5625;50.122;19.864;2023-02-01T15:03:36;8.63;;;5.80;;
11141;SDS011;5625;50.122;19.864;2023-02-01T15:06:18;16.87;;;9.63;;
11141;SDS011;5625;50.122;19.864;2023-02-01T15:09:00;19.00;;;11.53;;
11141;SDS011;5625;50.122;19.864;2023-02-01T15:11:32;17.63;;;10.87;;
11141;SDS011;5625;50.122;19.864;2023-02-01T15:14:21;10.43;;;7.30;;
11141;SDS011;5625;50.122;19.864;2023-02-01T15:16:51;12.23;;;9.20;;
11141;SDS011;5625;50.122;19.864;2023-02-01T15:19:22;10.83;;;6.80;;
11141;SDS011;5625;50.122;19.864;2023-02-01T15:21:52;8.27;;;6.63;;
11141;SDS011;5625;50.122;19.864;2023-02-01T15:24:22;6.33;;;5.57;;
11141;SDS011;5625;50.122;19.864;2023-02-01T15:26:54;7.80;;;6.03;;
11141;SDS011;5625;50.122;19.864;2023-02-01T15:29:24;7.27;;;6.40;;
11141;SDS011;5625;50.122;19.864;2023-02-01T15:31:55;10.37;;;7.77;;
11141;SDS011;5625;50.122;19.864;2023-02-01T15:34:23;9.53;;;8.43;;
11141;SDS011;5625;50.122;19.864;2023-02-01T15:37:13;9.43;;;7.40;;
11141;SDS011;5625;50.122;19.864;2023-02-01T15:42:35;8.83;;;7.93;;
11141;SDS011;5625;50.122;19.864;2023-02-01T15:45:13;10.93;;;8.67;;
11141;SDS011;5625;50.122;19.864;2023-02-01T15:47:46;12.07;;;9.87;;
11141;SDS011;5625;50.122;19.864;2023-02-01T15:50:15;10.33;;;7.87;;
11141;SDS011;5625;50.122;19.864;2023-02-01T15:52:46;8.37;;;6.43;;